sensor_id;sensor_type;location;lat;lon;timestamp;pressure;altitude;pressure_sealevel;temperature;humidity
64821;BME280;51256;55.654;37.264;2022-08-01T00:00:35;99355.13;;;18.80;47.53
64821;BME280;51256;55.654;37.264;2022-08-01T00:03:01;99356.38;;;18.78;47.66
64821;BME280;51256;55.654;37.264;2022-08-01T00:05:26;99352.81;;;18.77;47.60
64821;BME280;51256;55.654;37.264;2022-08-01T00:07:52;99340.41;;;18.76;47.77
64821;BME280;51256;55.654;37.264;2022-08-01T00:10:18;99350.13;;;18.77;47.76
64821;BME280;51256;55.654;37.264;2022-08-01T00:12:44;99338.72;;;18.69;47.93
64821;BME280;51256;55.654;37.264;2022-08-01T00:15:13;99342.25;;;18.69;47.75
64821;BME280;51256;55.654;37.264;2022-08-01T00:17:40;99328.75;;;18.62;48.07
64821;BME280;51256;55.654;37.264;2022-08-01T00:20:08;99334.34;;;18.61;48.25
64821;BME280;51256;55.654;37.264;2022-08-01T00:22:34;99328.53;;;18.57;48.27
64821;BME280;51256;55.654;37.264;2022-08-01T00:25:00;99336.81;;;18.56;48.41
64821;BME280;51256;55.654;37.264;2022-08-01T00:27:26;99328.09;;;18.54;48.45
64821;BME280;51256;55.654;37.264;2022-08-01T00:29:51;99337.41;;;18.51;48.46
64821;BME280;51256;55.654;37.264;2022-08-01T00:32:17;99329.94;;;18.46;48.32
64821;BME280;51256;55.654;37.264;2022-08-01T00:34:43;99336.34;;;18.45;48.53
64821;BME280;51256;55.654;37.264;2022-08-01T00:37:08;99340.06;;;18.44;48.55
64821;BME280;51256;55.654;37.264;2022-08-01T00:39:34;99335.06;;;18.41;48.49
64821;BME280;51256;55.654;37.264;2022-08-01T00:42:01;99335.28;;;18.40;48.41
64821;BME280;51256;55.654;37.264;2022-08-01T00:44:30;99340.84;;;18.38;48.43
64821;BME280;51256;55.654;37.264;2022-08-01T00:46:56;99339.41;;;18.36;48.45
64821;BME280;51256;55.654;37.264;2022-08-01T00:49:21;99321.38;;;18.29;48.29
64821;BME280;51256;55.654;37.264;2022-08-01T00:51:47;99329.88;;;18.33;48.44
64821;BME280;51256;55.654;37.264;2022-08-01T00:54:13;99331.72;;;18.33;48.40
64821;BME280;51256;55.654;37.264;2022-08-01T00:56:39;99329.63;;;18.28;48.33
64821;BME280;51256;55.654;37.264;2022-08-01T00:59:04;99329.63;;;18.28;48.35
64821;BME280;51256;55.654;37.264;2022-08-01T01:01:31;99332.31;;;18.28;48.44
64821;BME280;51256;55.654;37.264;2022-08-01T01:03:56;99328.78;;;18.27;48.26
64821;BME280;51256;55.654;37.264;2022-08-01T01:12:15;99326.66;;;18.16;48.39
64821;BME280;51256;55.654;37.264;2022-08-01T01:14:52;99330.38;;;18.15;48.64
64821;BME280;51256;55.654;37.264;2022-08-01T01:17:24;99320.41;;;18.09;48.69
64821;BME280;51256;55.654;37.264;2022-08-01T01:19:54;99323.09;;;18.09;48.59
64821;BME280;51256;55.654;37.264;2022-08-01T01:28:02;99336.50;;;18.02;48.89
64821;BME280;51256;55.654;37.264;2022-08-01T01:30:33;99328.19;;;17.97;48.94
64821;BME280;51256;55.654;37.264;2022-08-01T01:33:02;99329.66;;;17.99;49.08
64821;BME280;51256;55.654;37.264;2022-08-01T01:35:31;99329.22;;;17.96;49.03
64821;BME280;51256;55.654;37.264;2022-08-01T01:38:08;99324.28;;;17.99;49.09
64821;BME280;51256;55.654;37.264;2022-08-01T01:40:36;99323.47;;;17.99;48.93
64821;BME280;51256;55.654;37.264;2022-08-01T01:43:02;99330.03;;;17.96;49.20
64821;BME280;51256;55.654;37.264;2022-08-01T01:45:28;99332.53;;;17.98;49.08
64821;BME280;51256;55.654;37.264;2022-08-01T01:47:55;99326.75;;;18.01;49.21
64821;BME280;51256;55.654;37.264;2022-08-01T01:50:22;99324.84;;;17.95;49.26
64821;BME280;51256;55.654;37.264;2022-08-01T01:52:49;99330.69;;;17.98;49.42
64821;BME280;51256;55.654;37.264;2022-08-01T01:55:18;99337.91;;;17.98;49.33
64821;BME280;51256;55.654;37.264;2022-08-01T01:57:45;99333.00;;;18.02;49.45
64821;BME280;51256;55.654;37.264;2022-08-01T02:00:12;99333.00;;;18.02;49.50
64821;BME280;51256;55.654;37.264;2022-08-01T02:02:40;99321.81;;;17.98;49.49
64821;BME280;51256;55.654;37.264;2022-08-01T02:05:09;99326.56;;;18.03;49.52
64821;BME280;51256;55.654;37.264;2022-08-01T02:07:36;99331.56;;;18.06;49.50
64821;BME280;51256;55.654;37.264;2022-08-01T02:10:04;99326.63;;;18.09;49.55
64821;BME280;51256;55.654;37.264;2022-08-01T02:12:33;99320.25;;;18.17;49.35
64821;BME280;51256;55.654;37.264;2022-08-01T02:14:59;99328.91;;;18.12;49.38
64821;BME280;51256;55.654;37.264;2022-08-01T02:17:26;99324.41;;;18.20;49.37
64821;BME280;51256;55.654;37.264;2022-08-01T02:19:53;99319.91;;;18.27;49.18
64821;BME280;51256;55.654;37.264;2022-08-01T02:25:39;99319.16;;;18.40;49.04
64821;BME280;51256;55.654;37.264;2022-08-01T02:27:58;99317.91;;;18.42;48.98
64821;BME280;51256;55.654;37.264;2022-08-01T02:30:34;99314.22;;;18.43;48.98
64821;BME280;51256;55.654;37.264;2022-08-01T02:33:19;99315.28;;;18.49;48.97
64821;BME280;51256;55.654;37.264;2022-08-01T02:35:52;99311.38;;;18.52;49.01
64821;BME280;51256;55.654;37.264;2022-08-01T02:38:22;99314.06;;;18.58;48.77
64821;BME280;51256;55.654;37.264;2022-08-01T02:40:50;99317.41;;;18.60;48.79
64821;BME280;51256;55.654;37.264;2022-08-01T02:43:21;99322.78;;;18.67;48.86
64821;BME280;51256;55.654;37.264;2022-08-01T02:45:49;99314.88;;;18.59;48.93
64821;BME280;51256;55.654;37.264;2022-08-01T02:48:17;99324.22;;;18.63;49.11
64821;BME280;51256;55.654;37.264;2022-08-01T02:50:45;99325.28;;;18.69;48.70
64821;BME280;51256;55.654;37.264;2022-08-01T02:53:13;99323.44;;;18.69;48.76
64821;BME280;51256;55.654;37.264;2022-08-01T02:55:40;99323.81;;;18.66;48.94
64821;BME280;51256;55.654;37.264;2022-08-01T02:58:08;99328.34;;;18.59;49.05
64821;BME280;51256;55.654;37.264;2022-08-01T03:00:35;99332.03;;;18.51;49.15
64821;BME280;51256;55.654;37.264;2022-08-01T03:03:03;99324.81;;;18.52;48.97
64821;BME280;51256;55.654;37.264;2022-08-01T03:05:30;99325.81;;;18.51;49.18
64821;BME280;51256;55.654;37.264;2022-08-01T03:07:59;99322.50;;;18.48;49.38
64821;BME280;51256;55.654;37.264;2022-08-01T03:10:27;99313.13;;;18.38;49.56
64821;BME280;51256;55.654;37.264;2022-08-01T03:12:54;99326.84;;;18.43;49.75
64821;BME280;51256;55.654;37.264;2022-08-01T03:15:21;99315.66;;;18.39;49.59
64821;BME280;51256;55.654;37.264;2022-08-01T03:17:50;99324.31;;;18.41;49.79
64821;BME280;51256;55.654;37.264;2022-08-01T03:20:19;99325.16;;;18.42;50.03
64821;BME280;51256;55.654;37.264;2022-08-01T03:22:47;99320.59;;;18.42;49.81
64821;BME280;51256;55.654;37.264;2022-08-01T03:25:17;99317.72;;;18.44;49.56
64821;BME280;51256;55.654;37.264;2022-08-01T03:27:45;99325.63;;;18.52;49.53
64821;BME280;51256;55.654;37.264;2022-08-01T03:30:13;99321.91;;;18.53;49.44
64821;BME280;51256;55.654;37.264;2022-08-01T03:32:40;99331.44;;;18.56;49.44
64821;BME280;51256;55.654;37.264;2022-08-01T03:35:06;99313.84;;;18.53;49.59
64821;BME280;51256;55.654;37.264;2022-08-01T03:37:42;99312.03;;;18.60;49.59
64821;BME280;51256;55.654;37.264;2022-08-01T03:40:15;99321.53;;;18.63;49.57
64821;BME280;51256;55.654;37.264;2022-08-01T03:42:47;99318.66;;;18.64;49.67
64821;BME280;51256;55.654;37.264;2022-08-01T03:45:25;99324.03;;;18.71;49.57
64821;BME280;51256;55.654;37.264;2022-08-01T03:48:14;99312.69;;;18.69;49.58
64821;BME280;51256;55.654;37.264;2022-08-01T03:50:43;99317.00;;;18.70;49.73
64821;BME280;51256;55.654;37.264;2022-08-01T03:53:10;99308.75;;;18.72;49.60
64821;BME280;51256;55.654;37.264;2022-08-01T03:55:38;99307.94;;;18.78;49.55
64821;BME280;51256;55.654;37.264;2022-08-01T03:58:05;99312.72;;;18.83;49.58
64821;BME280;51256;55.654;37.264;2022-08-01T04:00:35;99309.84;;;18.84;49.45
64821;BME280;51256;55.654;37.264;2022-08-01T04:03:03;99310.44;;;18.86;49.60
64821;BME280;51256;55.654;37.264;2022-08-01T04:05:30;99313.00;;;18.94;49.58
64821;BME280;51256;55.654;37.264;2022-08-01T04:07:56;99316.72;;;19.00;49.49
64821;BME280;51256;55.654;37.264;2022-08-01T04:10:23;99306.16;;;18.99;49.30
64821;BME280;51256;55.654;37.264;2022-08-01T04:12:49;99307.41;;;19.03;49.61
64821;BME280;51256;55.654;37.264;2022-08-01T04:15:15;99305.16;;;19.06;49.60
64821;BME280;51256;55.654;37.264;2022-08-01T04:17:41;99308.69;;;19.14;49.66
64821;BME280;51256;55.654;37.264;2022-08-01T04:20:07;99314.91;;;19.21;49.57
64821;BME280;51256;55.654;37.264;2022-08-01T04:22:33;99303.94;;;19.22;49.82
64821;BME280;51256;55.654;37.264;2022-08-01T04:25:01;99321.16;;;19.28;49.37
64821;BME280;51256;55.654;37.264;2022-08-01T04:27:32;99313.47;;;19.32;49.72
64821;BME280;51256;55.654;37.264;2022-08-01T04:30:00;99317.00;;;19.39;49.59
64821;BME280;51256;55.654;37.264;2022-08-01T04:32:29;99312.66;;;19.44;49.51
64821;BME280;51256;55.654;37.264;2022-08-01T04:34:58;99315.16;;;19.53;49.36
64821;BME280;51256;55.654;37.264;2022-08-01T04:37:25;99320.53;;;19.53;48.89
64821;BME280;51256;55.654;37.264;2022-08-01T04:39:54;99328.00;;;19.57;48.72
64821;BME280;51256;55.654;37.264;2022-08-01T04:42:20;99322.22;;;19.60;48.55
64821;BME280;51256;55.654;37.264;2022-08-01T04:44:46;99320.13;;;19.63;48.54
64821;BME280;51256;55.654;37.264;2022-08-01T04:47:12;99310.19;;;19.63;48.44
64821;BME280;51256;55.654;37.264;2022-08-01T04:49:39;99318.06;;;19.65;48.17
64821;BME280;51256;55.654;37.264;2022-08-01T04:52:06;99317.84;;;19.66;48.53
64821;BME280;51256;55.654;37.264;2022-08-01T04:54:34;99325.91;;;19.73;48.19
64821;BME280;51256;55.654;37.264;2022-08-01T04:57:03;99321.78;;;19.77;48.06
64821;BME280;51256;55.654;37.264;2022-08-01T04:59:30;99318.66;;;19.80;48.05
64821;BME280;51256;55.654;37.264;2022-08-01T05:02:06;99326.97;;;19.85;47.75
64821;BME280;51256;55.654;37.264;2022-08-01T05:04:32;99327.00;;;19.92;47.55
64821;BME280;51256;55.654;37.264;2022-08-01T05:06:58;99332.38;;;19.99;47.31
64821;BME280;51256;55.654;37.264;2022-08-01T05:09:26;99328.84;;;20.05;47.15
64821;BME280;51256;55.654;37.264;2022-08-01T05:11:52;99324.09;;;20.07;47.04
64821;BME280;51256;55.654;37.264;2022-08-01T05:14:17;99335.88;;;20.13;46.87
64821;BME280;51256;55.654;37.264;2022-08-01T05:16:44;99325.91;;;20.20;46.83
64821;BME280;51256;55.654;37.264;2022-08-01T05:19:11;99322.38;;;20.26;46.66
64821;BME280;51256;55.654;37.264;2022-08-01T05:21:36;99318.22;;;20.37;46.38
64821;BME280;51256;55.654;37.264;2022-08-01T05:24:04;99330.41;;;20.46;46.35
64821;BME280;51256;55.654;37.264;2022-08-01T05:26:29;99326.44;;;20.55;46.31
64821;BME280;51256;55.654;37.264;2022-08-01T05:28:57;99330.34;;;20.66;46.10
64821;BME280;51256;55.654;37.264;2022-08-01T05:31:23;99322.63;;;20.77;45.91
64821;BME280;51256;55.654;37.264;2022-08-01T05:33:51;99310.19;;;20.82;45.74
64821;BME280;51256;55.654;37.264;2022-08-01T05:36:17;99323.97;;;20.99;45.51
64821;BME280;51256;55.654;37.264;2022-08-01T05:38:42;99318.75;;;21.04;45.20
64821;BME280;51256;55.654;37.264;2022-08-01T05:41:08;99317.06;;;21.10;44.64
64821;BME280;51256;55.654;37.264;2022-08-01T05:43:34;99321.38;;;21.18;44.53
64821;BME280;51256;55.654;37.264;2022-08-01T05:45:59;99320.09;;;21.27;44.63
64821;BME280;51256;55.654;37.264;2022-08-01T05:48:26;99312.50;;;21.43;44.38
64821;BME280;51256;55.654;37.264;2022-08-01T05:50:51;99316.00;;;21.50;44.07
64821;BME280;51256;55.654;37.264;2022-08-01T05:53:19;99317.34;;;21.66;44.07
64821;BME280;51256;55.654;37.264;2022-08-01T05:55:44;99315.94;;;21.82;43.73
64821;BME280;51256;55.654;37.264;2022-08-01T05:58:12;99296.75;;;21.90;43.49
64821;BME280;51256;55.654;37.264;2022-08-01T06:00:39;99319.84;;;22.11;43.22
64821;BME280;51256;55.654;37.264;2022-08-01T06:03:04;99311.81;;;22.23;42.71
64821;BME280;51256;55.654;37.264;2022-08-01T06:05:29;99314.00;;;22.33;42.68
64821;BME280;51256;55.654;37.264;2022-08-01T06:07:55;99316.59;;;22.46;42.76
64821;BME280;51256;55.654;37.264;2022-08-01T06:10:20;99311.84;;;22.60;42.43
64821;BME280;51256;55.654;37.264;2022-08-01T06:12:46;99316.13;;;22.68;42.07
64821;BME280;51256;55.654;37.264;2022-08-01T06:15:15;99322.88;;;22.77;41.41
64821;BME280;51256;55.654;37.264;2022-08-01T06:17:40;99326.09;;;22.86;40.93
64821;BME280;51256;55.654;37.264;2022-08-01T06:20:12;99322.19;;;22.82;40.18
64821;BME280;51256;55.654;37.264;2022-08-01T06:22:40;99324.38;;;22.73;40.39
64821;BME280;51256;55.654;37.264;2022-08-01T06:25:09;99319.69;;;22.80;40.79
64821;BME280;51256;55.654;37.264;2022-08-01T06:27:37;99310.97;;;22.78;40.87
64821;BME280;51256;55.654;37.264;2022-08-01T06:30:04;99320.22;;;22.89;40.84
64821;BME280;51256;55.654;37.264;2022-08-01T06:32:30;99319.16;;;22.90;41.21
64821;BME280;51256;55.654;37.264;2022-08-01T06:34:58;99329.31;;;22.95;41.29
64821;BME280;51256;55.654;37.264;2022-08-01T06:37:28;99337.78;;;22.98;41.55
64821;BME280;51256;55.654;37.264;2022-08-01T06:39:54;99333.22;;;22.99;41.44
64821;BME280;51256;55.654;37.264;2022-08-01T06:42:19;99332.16;;;23.00;41.11
64821;BME280;51256;55.654;37.264;2022-08-01T06:44:45;99327.19;;;22.97;40.93
64821;BME280;51256;55.654;37.264;2022-08-01T06:47:10;99335.69;;;23.00;41.01
64821;BME280;51256;55.654;37.264;2022-08-01T06:49:36;99331.31;;;22.99;41.46
64821;BME280;51256;55.654;37.264;2022-08-01T06:52:02;99334.16;;;23.05;41.44
64821;BME280;51256;55.654;37.264;2022-08-01T06:54:28;99327.00;;;23.10;41.36
64821;BME280;51256;55.654;37.264;2022-08-01T06:56:54;99319.50;;;23.12;41.23
64821;BME280;51256;55.654;37.264;2022-08-01T06:59:20;99321.88;;;23.21;40.98
64821;BME280;51256;55.654;37.264;2022-08-01T07:01:45;99320.47;;;23.18;40.71
64821;BME280;51256;55.654;37.264;2022-08-01T07:04:10;99334.28;;;23.28;40.49
64821;BME280;51256;55.654;37.264;2022-08-01T07:06:36;99335.94;;;23.29;40.46
64821;BME280;51256;55.654;37.264;2022-08-01T07:09:02;99341.16;;;23.43;40.38
64821;BME280;51256;55.654;37.264;2022-08-01T07:11:28;99346.38;;;23.56;40.37
64821;BME280;51256;55.654;37.264;2022-08-01T07:13:54;99346.72;;;23.60;39.77
64821;BME280;51256;55.654;37.264;2022-08-01T07:16:19;99338.69;;;23.41;39.26
64821;BME280;51256;55.654;37.264;2022-08-01T07:18:45;99344.19;;;23.35;39.77
64821;BME280;51256;55.654;37.264;2022-08-01T07:21:11;99345.84;;;23.36;39.61
64821;BME280;51256;55.654;37.264;2022-08-01T07:23:36;99341.28;;;23.36;40.04
64821;BME280;51256;55.654;37.264;2022-08-01T07:26:03;99335.50;;;23.44;39.94
64821;BME280;51256;55.654;37.264;2022-08-01T07:28:29;99337.88;;;23.53;39.35
64821;BME280;51256;55.654;37.264;2022-08-01T07:30:54;99339.88;;;23.57;39.42
64821;BME280;51256;55.654;37.264;2022-08-01T07:33:20;99340.03;;;23.62;39.52
64821;BME280;51256;55.654;37.264;2022-08-01T07:35:45;99331.06;;;23.62;39.62
64821;BME280;51256;55.654;37.264;2022-08-01T07:38:11;99337.81;;;23.71;39.33
64821;BME280;51256;55.654;37.264;2022-08-01T07:40:37;99335.66;;;23.73;39.67
64821;BME280;51256;55.654;37.264;2022-08-01T07:43:03;99338.84;;;23.70;39.77
64821;BME280;51256;55.654;37.264;2022-08-01T07:45:28;99334.00;;;23.72;39.61
64821;BME280;51256;55.654;37.264;2022-08-01T07:47:55;99319.88;;;23.70;39.56
64821;BME280;51256;55.654;37.264;2022-08-01T07:50:20;99332.25;;;23.78;39.63
64821;BME280;51256;55.654;37.264;2022-08-01T07:52:46;99320.25;;;23.74;39.43
64821;BME280;51256;55.654;37.264;2022-08-01T07:55:11;99339.34;;;23.91;39.68
64821;BME280;51256;55.654;37.264;2022-08-01T07:57:37;99337.63;;;23.96;39.69
64821;BME280;51256;55.654;37.264;2022-08-01T08:00:06;99336.19;;;23.94;39.37
64821;BME280;51256;55.654;37.264;2022-08-01T08:02:33;99327.09;;;23.76;38.88
64821;BME280;51256;55.654;37.264;2022-08-01T08:04:59;99324.59;;;23.63;39.05
64821;BME280;51256;55.654;37.264;2022-08-01T08:07:24;99342.13;;;23.60;39.45
64821;BME280;51256;55.654;37.264;2022-08-01T08:09:50;99322.00;;;23.56;39.46
64821;BME280;51256;55.654;37.264;2022-08-01T08:12:15;99332.94;;;23.61;39.59
64821;BME280;51256;55.654;37.264;2022-08-01T08:14:41;99329.19;;;23.62;39.68
64821;BME280;51256;55.654;37.264;2022-08-01T08:17:06;99323.91;;;23.68;39.70
64821;BME280;51256;55.654;37.264;2022-08-01T08:19:32;99319.41;;;23.61;39.13
64821;BME280;51256;55.654;37.264;2022-08-01T08:21:59;99325.75;;;23.67;39.18
64821;BME280;51256;55.654;37.264;2022-08-01T08:24:25;99321.88;;;23.75;39.07
64821;BME280;51256;55.654;37.264;2022-08-01T08:26:54;99330.38;;;23.90;39.10
64821;BME280;51256;55.654;37.264;2022-08-01T08:29:21;99323.44;;;23.94;38.71
64821;BME280;51256;55.654;37.264;2022-08-01T08:31:47;99327.34;;;23.99;37.87
64821;BME280;51256;55.654;37.264;2022-08-01T08:34:13;99318.28;;;23.93;37.85
64821;BME280;51256;55.654;37.264;2022-08-01T08:36:38;99312.38;;;23.96;37.53
64821;BME280;51256;55.654;37.264;2022-08-01T08:39:05;99326.75;;;24.08;37.62
64821;BME280;51256;55.654;37.264;2022-08-01T08:41:31;99328.06;;;24.18;37.59
64821;BME280;51256;55.654;37.264;2022-08-01T08:43:57;99317.78;;;24.20;37.27
64821;BME280;51256;55.654;37.264;2022-08-01T08:46:26;99312.34;;;24.32;37.35
64821;BME280;51256;55.654;37.264;2022-08-01T08:48:53;99314.00;;;24.33;37.33
64821;BME280;51256;55.654;37.264;2022-08-01T08:51:19;99310.94;;;24.29;37.07
64821;BME280;51256;55.654;37.264;2022-08-01T08:53:46;99314.97;;;24.26;36.65
64821;BME280;51256;55.654;37.264;2022-08-01T08:56:13;99315.63;;;24.34;36.87
64821;BME280;51256;55.654;37.264;2022-08-01T08:58:41;99312.31;;;24.43;37.13
64821;BME280;51256;55.654;37.264;2022-08-01T09:01:09;99313.00;;;24.51;37.11
64821;BME280;51256;55.654;37.264;2022-08-01T09:03:35;99301.91;;;24.52;36.26
64821;BME280;51256;55.654;37.264;2022-08-01T09:06:01;99306.53;;;24.52;35.30
64821;BME280;51256;55.654;37.264;2022-08-01T09:08:26;99306.63;;;24.45;35.20
64821;BME280;51256;55.654;37.264;2022-08-01T09:10:52;99311.72;;;24.53;35.21
64821;BME280;51256;55.654;37.264;2022-08-01T09:13:17;99301.06;;;24.64;34.77
64821;BME280;51256;55.654;37.264;2022-08-01T09:15:44;99303.78;;;24.75;34.22
64821;BME280;51256;55.654;37.264;2022-08-01T09:18:27;99303.16;;;24.85;33.50
64821;BME280;51256;55.654;37.264;2022-08-01T09:21:20;99287.50;;;24.75;33.96
64821;BME280;51256;55.654;37.264;2022-08-01T09:23:50;99285.13;;;24.79;34.19
64821;BME280;51256;55.654;37.264;2022-08-01T09:26:18;99299.16;;;25.05;34.63
64821;BME280;51256;55.654;37.264;2022-08-01T09:28:46;99292.06;;;25.33;34.36
64821;BME280;51256;55.654;37.264;2022-08-01T09:31:16;99282.13;;;25.55;34.18
64821;BME280;51256;55.654;37.264;2022-08-01T09:33:55;99286.91;;;25.65;34.39
64821;BME280;51256;55.654;37.264;2022-08-01T09:36:27;99291.44;;;25.99;33.68
64821;BME280;51256;55.654;37.264;2022-08-01T09:39:18;99289.78;;;26.32;33.26
64821;BME280;51256;55.654;37.264;2022-08-01T09:41:44;99291.47;;;26.38;32.84
64821;BME280;51256;55.654;37.264;2022-08-01T09:44:10;99293.56;;;26.53;32.69
64821;BME280;51256;55.654;37.264;2022-08-01T09:46:36;99286.31;;;26.64;32.04
64821;BME280;51256;55.654;37.264;2022-08-01T09:49:12;99286.69;;;26.73;32.37
64821;BME280;51256;55.654;37.264;2022-08-01T09:51:39;99283.50;;;26.76;32.19
64821;BME280;51256;55.654;37.264;2022-08-01T09:54:05;99282.22;;;26.83;32.29
64821;BME280;51256;55.654;37.264;2022-08-01T09:56:39;99281.91;;;26.80;32.22
64821;BME280;51256;55.654;37.264;2022-08-01T09:59:06;99270.13;;;26.74;31.83
64821;BME280;51256;55.654;37.264;2022-08-01T10:01:46;99279.44;;;26.78;31.92
64821;BME280;51256;55.654;37.264;2022-08-01T10:04:21;99279.78;;;26.82;31.65
64821;BME280;51256;55.654;37.264;2022-08-01T10:06:49;99279.25;;;26.85;31.62
64821;BME280;51256;55.654;37.264;2022-08-01T10:09:28;99276.03;;;26.88;31.56
64821;BME280;51256;55.654;37.264;2022-08-01T10:11:55;99273.16;;;26.78;31.63
64821;BME280;51256;55.654;37.264;2022-08-01T10:14:22;99270.81;;;26.86;31.56
64821;BME280;51256;55.654;37.264;2022-08-01T10:16:53;99278.47;;;26.90;31.56
64821;BME280;51256;55.654;37.264;2022-08-01T10:19:26;99275.19;;;26.88;31.33
64821;BME280;51256;55.654;37.264;2022-08-01T10:21:53;99278.44;;;26.84;30.83
64821;BME280;51256;55.654;37.264;2022-08-01T10:24:20;99277.94;;;26.93;31.06
64821;BME280;51256;55.654;37.264;2022-08-01T10:27:02;99272.13;;;27.11;31.46
64821;BME280;51256;55.654;37.264;2022-08-01T10:29:35;99271.41;;;27.21;31.26
64821;BME280;51256;55.654;37.264;2022-08-01T10:32:13;99259.72;;;27.21;31.17
64821;BME280;51256;55.654;37.264;2022-08-01T10:34:42;99257.22;;;27.19;30.82
64821;BME280;51256;55.654;37.264;2022-08-01T10:37:09;99283.00;;;27.39;31.14
64821;BME280;51256;55.654;37.264;2022-08-01T10:39:36;99269.53;;;27.54;30.68
64821;BME280;51256;55.654;37.264;2022-08-01T10:42:05;99262.88;;;27.77;30.43
64821;BME280;51256;55.654;37.264;2022-08-01T10:44:33;99276.94;;;28.02;30.41
64821;BME280;51256;55.654;37.264;2022-08-01T10:47:22;99277.28;;;28.10;30.56
64821;BME280;51256;55.654;37.264;2022-08-01T10:49:58;99272.06;;;28.04;29.96
64821;BME280;51256;55.654;37.264;2022-08-01T10:52:27;99266.34;;;28.05;30.13
64821;BME280;51256;55.654;37.264;2022-08-01T10:55:06;99270.72;;;28.06;30.40
64821;BME280;51256;55.654;37.264;2022-08-01T10:57:47;99270.59;;;27.91;29.86
64821;BME280;51256;55.654;37.264;2022-08-01T11:00:21;99269.44;;;27.81;30.23
64821;BME280;51256;55.654;37.264;2022-08-01T11:02:58;99263.66;;;27.73;30.28
64821;BME280;51256;55.654;37.264;2022-08-01T11:05:27;99262.84;;;27.72;29.84
64821;BME280;51256;55.654;37.264;2022-08-01T11:07:54;99256.53;;;27.66;30.10
64821;BME280;51256;55.654;37.264;2022-08-01T11:10:39;99256.03;;;27.70;30.02
64821;BME280;51256;55.654;37.264;2022-08-01T11:13:06;99248.38;;;27.72;30.00
64821;BME280;51256;55.654;37.264;2022-08-01T11:15:36;99241.25;;;27.65;29.97
64821;BME280;51256;55.654;37.264;2022-08-01T11:18:30;99252.69;;;27.62;30.42
64821;BME280;51256;55.654;37.264;2022-08-01T11:21:00;99243.69;;;27.62;30.30
64821;BME280;51256;55.654;37.264;2022-08-01T11:23:29;99230.59;;;27.64;30.25
64821;BME280;51256;55.654;37.264;2022-08-01T11:28:27;99232.84;;;28.20;30.13
64821;BME280;51256;55.654;37.264;2022-08-01T11:36:19;99241.97;;;28.57;29.36
64821;BME280;51256;55.654;37.264;2022-08-01T11:39:11;99246.84;;;28.44;29.33
64821;BME280;51256;55.654;37.264;2022-08-01T11:41:38;99237.50;;;28.25;29.72
64821;BME280;51256;55.654;37.264;2022-08-01T11:44:08;99245.63;;;28.09;29.89
64821;BME280;51256;55.654;37.264;2022-08-01T11:47:04;99244.13;;;27.91;30.43
64821;BME280;51256;55.654;37.264;2022-08-01T11:52:10;99234.28;;;27.42;30.86
64821;BME280;51256;55.654;37.264;2022-08-01T11:57:32;99229.19;;;27.56;30.69
64821;BME280;51256;55.654;37.264;2022-08-01T12:02:36;99208.63;;;27.38;30.81
64821;BME280;51256;55.654;37.264;2022-08-01T12:05:17;99225.03;;;27.43;30.69
64821;BME280;51256;55.654;37.264;2022-08-01T12:07:53;99216.91;;;27.21;30.85
64821;BME280;51256;55.654;37.264;2022-08-01T12:10:29;99211.97;;;27.18;30.64
64821;BME280;51256;55.654;37.264;2022-08-01T12:13:06;99218.69;;;27.38;30.36
64821;BME280;51256;55.654;37.264;2022-08-01T12:15:34;99212.31;;;27.59;30.44
64821;BME280;51256;55.654;37.264;2022-08-01T12:18:02;99217.84;;;27.70;30.10
64821;BME280;51256;55.654;37.264;2022-08-01T12:20:52;99214.88;;;27.76;30.08
64821;BME280;51256;55.654;37.264;2022-08-01T12:23:19;99210.00;;;27.83;30.23
64821;BME280;51256;55.654;37.264;2022-08-01T12:25:51;99211.34;;;27.81;30.31
64821;BME280;51256;55.654;37.264;2022-08-01T12:28:17;99208.38;;;27.88;30.21
64821;BME280;51256;55.654;37.264;2022-08-01T12:30:47;99201.53;;;27.80;30.04
64821;BME280;51256;55.654;37.264;2022-08-01T12:33:19;99210.31;;;27.92;29.74
64821;BME280;51256;55.654;37.264;2022-08-01T12:35:51;99214.16;;;27.96;30.01
64821;BME280;51256;55.654;37.264;2022-08-01T12:38:20;99212.53;;;28.00;30.00
64821;BME280;51256;55.654;37.264;2022-08-01T12:40:50;99206.25;;;28.00;29.89
64821;BME280;51256;55.654;37.264;2022-08-01T12:43:18;99195.59;;;27.93;29.90
64821;BME280;51256;55.654;37.264;2022-08-01T12:45:45;99212.78;;;27.99;29.51
64821;BME280;51256;55.654;37.264;2022-08-01T12:48:16;99202.97;;;27.98;29.85
64821;BME280;51256;55.654;37.264;2022-08-01T12:50:51;99199.41;;;27.92;29.18
64821;BME280;51256;55.654;37.264;2022-08-01T12:53:22;99187.31;;;27.78;28.66
64821;BME280;51256;55.654;37.264;2022-08-01T12:55:50;99171.47;;;27.70;28.96
64821;BME280;51256;55.654;37.264;2022-08-01T12:58:18;99192.28;;;27.86;29.52
64821;BME280;51256;55.654;37.264;2022-08-01T13:00:46;99181.94;;;27.88;29.88
64821;BME280;51256;55.654;37.264;2022-08-01T13:03:17;99183.84;;;27.93;29.56
64821;BME280;51256;55.654;37.264;2022-08-01T13:10:46;99173.25;;;28.02;29.88
64821;BME280;51256;55.654;37.264;2022-08-01T13:13:24;99166.13;;;27.95;29.45
64821;BME280;51256;55.654;37.264;2022-08-01T13:16:02;99185.59;;;28.09;29.69
64821;BME280;51256;55.654;37.264;2022-08-01T13:18:30;99158.50;;;27.92;29.28
64821;BME280;51256;55.654;37.264;2022-08-01T13:21:24;99186.94;;;28.07;29.49
64821;BME280;51256;55.654;37.264;2022-08-01T13:24:12;99190.25;;;28.19;29.19
64821;BME280;51256;55.654;37.264;2022-08-01T13:29:07;99168.22;;;28.36;29.14
64821;BME280;51256;55.654;37.264;2022-08-01T13:31:37;99178.06;;;28.53;28.92
64821;BME280;51256;55.654;37.264;2022-08-01T13:34:03;99180.28;;;28.61;28.81
64821;BME280;51256;55.654;37.264;2022-08-01T13:36:33;99183.03;;;28.66;28.58